Time;durP1;ratioP1;P1;durP2;ratioP2;P2;SDS_P1;SDS_P2;PMS_P1;PMS_P2;Temp;Humidity;BMP_temperature;BMP_pressure;BME280_temperature;BME280_humidity;BME280_pressure;Samples;Min_cycle;Max_cycle;Signal;HPM_P1;HPM_P2
2022/03/31 00:00:23;;;;;;;55.43;51.47;;;6.90;86.10;;;;;;5031985;28;20444;-79
2022/03/31 00:02:51;;;;;;;116.80;111.07;;;6.80;91.10;;;;;;5032648;28;20467;-79
2022/03/31 00:05:17;;;;;;;73.27;67.50;;;6.90;98.00;;;;;;5032744;28;20448;-79
2022/03/31 00:07:49;;;;;;;128.53;122.43;;;6.80;99.00;;;;;;5032950;28;20484;-79
2022/03/31 00:10:20;;;;;;;40.03;25.07;;;6.70;97.40;;;;;;5032119;28;20452;-79
2022/03/31 00:12:47;;;;;;;54.27;50.43;;;6.80;92.30;;;;;;5033048;28;20949;-79
2022/03/31 00:15:14;;;;;;;120.80;114.87;;;6.70;95.20;;;;;;5032990;28;20987;-80
2022/03/31 00:17:40;;;;;;;255.27;245.17;;;6.70;97.60;;;;;;5033187;28;20556;-79
2022/03/31 00:20:11;;;;;;;248.33;238.57;;;6.80;99.80;;;;;;5032217;28;20829;-79
2022/03/31 00:22:38;;;;;;;190.03;181.70;;;6.70;99.90;;;;;;5033119;28;20502;-79
2022/03/31 00:25:06;;;;;;;233.80;224.43;;;6.70;99.90;;;;;;5032829;28;20831;-79
2022/03/31 00:27:32;;;;;;;286.77;275.23;;;6.60;99.90;;;;;;5033163;28;20487;-82
2022/03/31 00:29:59;;;;;;;249.37;239.73;;;6.60;99.90;;;;;;5033071;28;20459;-79
2022/03/31 00:32:26;;;;;;;302.13;291.17;;;6.50;99.90;;;;;;5034540;28;20453;-79
2022/03/31 00:34:53;;;;;;;433.70;416.10;;;6.50;99.90;;;;;;5033315;28;20475;-80
2022/03/31 00:37:21;;;;;;;588.00;562.03;;;6.50;99.90;;;;;;5033155;28;20448;-79
2022/03/31 00:39:48;;;;;;;559.60;535.43;;;6.60;99.90;;;;;;5032331;28;20956;-79
2022/03/31 00:42:16;;;;;;;478.50;459.13;;;6.50;99.90;;;;;;5033467;28;20535;-81
2022/03/31 00:44:43;;;;;;;409.70;393.30;;;6.50;99.90;;;;;;5033896;28;20460;-79
2022/03/31 00:47:10;;;;;;;380.23;364.47;;;6.40;99.90;;;;;;5033266;28;20855;-79
2022/03/31 00:49:37;;;;;;;389.77;373.43;;;6.40;99.90;;;;;;5032590;28;20475;-79
2022/03/31 00:52:04;;;;;;;381.07;365.57;;;6.40;99.90;;;;;;5033064;28;20547;-79
2022/03/31 00:54:33;;;;;;;329.43;316.13;;;6.40;99.90;;;;;;5033156;28;20479;-79
2022/03/31 00:57:03;;;;;;;305.47;293.80;;;6.50;99.90;;;;;;5031723;28;20449;-79
2022/03/31 00:59:30;;;;;;;275.23;264.50;;;6.50;99.90;;;;;;5031842;28;20604;-79
2022/03/31 01:01:59;;;;;;;279.30;267.87;;;6.50;99.90;;;;;;5032620;28;20872;-79
2022/03/31 01:04:27;;;;;;;256.70;246.50;;;6.50;99.90;;;;;;5032737;28;20480;-79
2022/03/31 01:06:54;;;;;;;352.87;338.53;;;6.40;99.90;;;;;;5032907;28;20469;-79
2022/03/31 01:09:21;;;;;;;391.30;375.43;;;6.40;99.90;;;;;;5032193;28;20484;-81
2022/03/31 01:11:49;;;;;;;295.03;283.37;;;6.50;99.90;;;;;;5032524;28;20452;-79
2022/03/31 01:14:16;;;;;;;313.43;300.13;;;6.40;99.90;;;;;;5032544;28;20471;-79
2022/03/31 01:16:43;;;;;;;295.50;283.47;;;6.50;99.90;;;;;;5032138;28;20963;-80
2022/03/31 01:19:12;;;;;;;348.53;335.10;;;6.50;99.90;;;;;;5032407;28;20479;-79
2022/03/31 01:21:40;;;;;;;350.73;336.13;;;6.50;99.90;;;;;;5032705;28;20514;-82
2022/03/31 01:24:10;;;;;;;394.80;378.07;;;6.50;99.90;;;;;;5032452;28;20969;-82
2022/03/31 01:26:39;;;;;;;340.80;325.80;;;6.50;99.90;;;;;;5032717;28;20476;-79
2022/03/31 01:29:06;;;;;;;328.30;314.73;;;6.30;99.90;;;;;;5031297;28;21003;-81
2022/03/31 01:31:33;;;;;;;282.23;271.07;;;6.70;99.90;;;;;;5032683;28;20456;-79
2022/03/31 01:34:00;;;;;;;226.17;216.47;;;6.50;99.90;;;;;;5032658;28;20563;-79
2022/03/31 01:36:27;;;;;;;329.90;315.80;;;6.50;99.90;;;;;;5032440;28;20459;-80
2022/03/31 01:38:54;;;;;;;368.40;353.50;;;6.60;99.90;;;;;;5032009;28;20488;-79
2022/03/31 01:41:22;;;;;;;428.33;410.47;;;6.50;99.90;;;;;;5032723;28;20456;-79
2022/03/31 01:43:49;;;;;;;488.60;467.23;;;6.50;99.90;;;;;;5013228;28;20963;-80
2022/03/31 01:46:16;;;;;;;553.50;527.80;;;6.40;99.90;;;;;;5026918;28;20894;-79
2022/03/31 01:48:43;;;;;;;538.73;514.63;;;6.50;99.90;;;;;;5032294;28;20473;-79
2022/03/31 01:51:10;;;;;;;512.97;490.80;;;6.70;99.90;;;;;;5032962;28;20806;-79
2022/03/31 01:53:38;;;;;;;507.60;485.03;;;6.50;99.90;;;;;;5032440;28;20452;-80
2022/03/31 01:56:06;;;;;;;430.73;413.17;;;6.50;99.90;;;;;;5032663;28;20453;-79
2022/03/31 01:58:34;;;;;;;393.67;378.07;;;6.60;99.90;;;;;;5031928;28;20475;-82
2022/03/31 02:01:01;;;;;;;407.23;390.73;;;6.50;99.90;;;;;;5032189;28;20907;-81
2022/03/31 02:03:29;;;;;;;487.47;466.87;;;6.50;99.90;;;;;;5032648;28;20457;-79
2022/03/31 02:05:56;;;;;;;534.17;509.40;;;6.60;99.90;;;;;;5032453;28;20515;-80
2022/03/31 02:08:22;;;;;;;609.13;577.43;;;6.50;99.90;;;;;;5031782;28;20480;-79
2022/03/31 02:10:50;;;;;;;631.13;596.33;;;6.50;99.90;;;;;;5035388;28;20448;-79
2022/03/31 02:13:17;;;;;;;689.37;650.90;;;6.50;99.90;;;;;;5035396;28;20837;-79
2022/03/31 02:15:45;;;;;;;714.57;673.37;;;6.60;99.90;;;;;;5034780;28;20487;-79
2022/03/31 02:18:12;;;;;;;667.53;632.13;;;6.50;99.90;;;;;;5033885;28;20472;-79
2022/03/31 02:20:39;;;;;;;639.07;604.47;;;6.50;99.90;;;;;;5034571;28;20448;-80
2022/03/31 02:23:06;;;;;;;681.87;643.23;;;6.40;99.90;;;;;;5034844;28;20468;-79
2022/03/31 02:25:34;;;;;;;722.30;679.47;;;6.50;99.90;;;;;;5034421;28;20448;-79
2022/03/31 02:28:01;;;;;;;635.77;601.57;;;6.40;99.90;;;;;;5034548;28;20495;-79
2022/03/31 02:30:29;;;;;;;726.50;683.17;;;6.60;99.90;;;;;;5033764;28;20827;-79
2022/03/31 02:32:59;;;;;;;715.13;673.67;;;6.50;99.90;;;;;;5034199;28;20452;-79
2022/03/31 02:35:26;;;;;;;734.23;690.07;;;6.40;99.90;;;;;;5034662;28;20444;-79
2022/03/31 02:37:53;;;;;;;742.00;696.87;;;6.30;99.90;;;;;;5034464;28;20495;-78
2022/03/31 02:40:20;;;;;;;688.20;650.10;;;6.50;99.90;;;;;;5033511;28;20453;-79
2022/03/31 02:42:46;;;;;;;703.93;664.37;;;6.40;99.90;;;;;;5034450;28;20452;-78
2022/03/31 02:45:14;;;;;;;717.93;676.37;;;6.30;99.90;;;;;;5032237;28;21354;-78
2022/03/31 02:47:41;;;;;;;772.20;722.40;;;6.30;99.90;;;;;;5033887;28;20483;-79
2022/03/31 02:50:09;;;;;;;761.40;712.17;;;6.20;99.90;;;;;;5032470;28;20460;-78
2022/03/31 02:55:28;;;;;;;788.27;735.90;;;6.30;99.90;;;;;;5034720;28;20535;-80
2022/03/31 02:57:55;;;;;;;801.23;744.03;;;6.30;99.90;;;;;;5048047;28;20506;-81
2022/03/31 03:00:22;;;;;;;808.90;754.20;;;6.30;99.90;;;;;;5049006;28;20445;-81
2022/03/31 03:02:49;;;;;;;839.47;779.87;;;6.20;99.90;;;;;;5037666;28;20949;-80
2022/03/31 03:05:17;;;;;;;821.90;761.60;;;6.30;99.90;;;;;;5033493;28;20912;-78
2022/03/31 03:07:44;;;;;;;835.67;772.90;;;6.20;99.90;;;;;;5034057;28;20476;-79
2022/03/31 03:10:13;;;;;;;815.60;749.80;;;6.40;99.90;;;;;;5034059;28;21101;-77
2022/03/31 03:12:40;;;;;;;811.03;746.77;;;6.40;99.90;;;;;;5033595;28;20448;-79
2022/03/31 03:15:07;;;;;;;809.90;744.27;;;6.30;99.90;;;;;;5034339;28;20448;-79
2022/03/31 03:17:34;;;;;;;817.57;753.47;;;6.30;99.90;;;;;;5032629;28;20464;-79
2022/03/31 03:20:01;;;;;;;816.27;750.70;;;6.30;99.90;;;;;;5032946;28;20457;-79
2022/03/31 03:22:29;;;;;;;808.80;744.30;;;6.20;99.90;;;;;;5033551;28;20460;-80
2022/03/31 03:24:56;;;;;;;833.47;767.60;;;6.20;99.90;;;;;;5032759;28;20452;-79
2022/03/31 03:27:22;;;;;;;830.60;761.70;;;6.30;99.90;;;;;;5033965;28;20473;-79
2022/03/31 03:29:49;;;;;;;815.73;749.03;;;6.30;99.90;;;;;;5033537;28;20451;-81
2022/03/31 03:32:16;;;;;;;824.47;755.30;;;6.20;99.90;;;;;;5033778;28;20456;-79
2022/03/31 03:34:43;;;;;;;835.13;762.33;;;6.30;99.90;;;;;;5034439;28;20452;-79
2022/03/31 03:37:10;;;;;;;822.53;750.77;;;6.30;99.90;;;;;;5032742;28;20441;-82
2022/03/31 03:39:38;;;;;;;830.63;762.77;;;6.30;99.90;;;;;;5034011;28;20472;-80
2022/03/31 03:42:07;;;;;;;832.13;764.20;;;6.30;99.90;;;;;;5034796;28;20456;-82
2022/03/31 03:44:36;;;;;;;830.10;763.00;;;6.20;99.90;;;;;;5033675;28;20463;-80
2022/03/31 03:47:03;;;;;;;823.37;755.27;;;6.30;99.90;;;;;;5034248;28;20472;-79
2022/03/31 03:49:29;;;;;;;821.93;756.50;;;6.30;99.90;;;;;;5035094;28;20478;-81
2022/03/31 03:51:56;;;;;;;816.50;750.73;;;6.20;99.90;;;;;;5033662;28;20455;-80
2022/03/31 03:54:23;;;;;;;818.10;755.60;;;6.20;99.90;;;;;;5036171;28;20456;-80
2022/03/31 03:56:51;;;;;;;798.63;738.37;;;6.10;99.90;;;;;;5034632;28;20452;-83
2022/03/31 03:59:18;;;;;;;789.90;734.70;;;6.10;99.90;;;;;;5032752;28;20479;-79
2022/03/31 04:01:44;;;;;;;792.60;735.77;;;6.20;99.90;;;;;;5034375;28;20455;-81
2022/03/31 04:04:12;;;;;;;788.47;733.33;;;6.10;99.90;;;;;;5033449;28;20452;-81
2022/03/31 04:06:39;;;;;;;780.30;726.50;;;6.20;99.90;;;;;;5034656;28;20456;-81
2022/03/31 04:09:06;;;;;;;778.87;725.40;;;6.00;99.90;;;;;;5032958;28;21003;-80
2022/03/31 04:11:33;;;;;;;789.67;734.23;;;6.10;99.90;;;;;;5029709;28;20540;-80
2022/03/31 04:14:01;;;;;;;781.53;723.10;;;6.00;99.90;;;;;;5031824;28;20452;-80
2022/03/31 04:16:28;;;;;;;794.17;734.93;;;5.90;99.90;;;;;;5035182;28;20459;-83
2022/03/31 04:18:55;;;;;;;778.50;721.27;;;5.90;99.90;;;;;;5032715;28;20547;-79
2022/03/31 04:21:21;;;;;;;781.90;722.27;;;6.00;99.90;;;;;;5036877;28;20510;-80
2022/03/31 04:23:48;;;;;;;778.70;718.93;;;5.90;99.90;;;;;;5035445;28;20460;-80
2022/03/31 04:26:15;;;;;;;781.87;721.10;;;6.00;99.90;;;;;;5032424;28;20454;-80
2022/03/31 04:28:42;;;;;;;778.83;717.80;;;6.00;99.90;;;;;;5033248;28;20555;-82
2022/03/31 04:31:10;;;;;;;788.93;725.50;;;5.90;99.90;;;;;;5030299;28;20931;-80
2022/03/31 04:33:37;;;;;;;787.77;722.97;;;5.90;99.90;;;;;;5032272;28;20452;-79
2022/03/31 04:36:04;;;;;;;792.23;725.67;;;5.80;99.90;;;;;;5032382;28;20463;-80
2022/03/31 04:38:31;;;;;;;798.33;732.50;;;5.90;99.90;;;;;;5054529;23;20488;-81
2022/03/31 04:40:58;;;;;;;814.53;745.23;;;5.90;99.90;;;;;;5033403;28;20454;-80
2022/03/31 04:43:25;;;;;;;822.73;752.50;;;5.90;99.90;;;;;;5018609;28;20449;-81
2022/03/31 04:45:51;;;;;;;818.73;749.27;;;5.90;99.90;;;;;;5018718;28;20445;-81
2022/03/31 04:48:19;;;;;;;822.30;752.70;;;5.80;99.90;;;;;;5035521;28;20484;-81
2022/03/31 04:50:46;;;;;;;825.30;753.70;;;6.00;99.90;;;;;;5034860;28;20459;-81
2022/03/31 04:53:14;;;;;;;803.93;734.37;;;5.90;99.90;;;;;;5018292;28;20460;-81
2022/03/31 04:55:41;;;;;;;820.97;749.97;;;5.90;99.90;;;;;;5019858;28;20453;-81
2022/03/31 04:58:08;;;;;;;832.20;760.57;;;5.80;99.90;;;;;;5032086;28;20473;-81
2022/03/31 05:00:35;;;;;;;843.23;771.77;;;5.90;99.90;;;;;;5020581;28;20456;-80
2022/03/31 05:03:02;;;;;;;845.20;772.53;;;5.90;99.90;;;;;;5038614;28;20955;-81
2022/03/31 05:05:30;;;;;;;848.77;775.60;;;5.80;99.90;;;;;;5033754;28;20460;-81
2022/03/31 05:07:57;;;;;;;843.23;771.80;;;5.90;99.90;;;;;;5029515;28;20473;-81
2022/03/31 05:10:23;;;;;;;843.37;771.87;;;5.90;99.90;;;;;;5018162;28;20471;-81
2022/03/31 05:12:50;;;;;;;844.73;772.67;;;5.90;99.90;;;;;;5038281;28;20460;-81
2022/03/31 05:15:17;;;;;;;843.13;771.37;;;5.80;99.90;;;;;;5037283;28;20833;-82
2022/03/31 05:17:43;;;;;;;845.67;772.87;;;5.90;99.90;;;;;;5029230;28;20456;-82
2022/03/31 05:20:13;;;;;;;853.33;780.73;;;5.90;99.90;;;;;;5018292;28;20484;-81
2022/03/31 05:22:41;;;;;;;852.60;779.43;;;5.80;99.90;;;;;;5022949;28;20455;-80
2022/03/31 05:25:11;;;;;;;820.30;751.70;;;5.80;99.90;;;;;;5011220;28;20835;-81
2022/03/31 05:27:43;;;;;;;831.10;760.93;;;5.70;99.90;;;;;;5031353;28;20884;-82
2022/03/31 05:30:11;;;;;;;821.63;752.03;;;5.80;99.90;;;;;;5025882;28;20469;-81
2022/03/31 05:32:38;;;;;;;824.67;753.07;;;5.80;99.90;;;;;;5023076;28;20479;-82
2022/03/31 05:35:05;;;;;;;823.87;752.23;;;5.80;99.90;;;;;;5031106;28;20465;-81
2022/03/31 05:37:33;;;;;;;824.47;753.47;;;5.80;99.90;;;;;;5020965;28;20457;-81
2022/03/31 05:40:04;;;;;;;821.97;750.53;;;5.70;99.90;;;;;;5011486;28;20481;-81
2022/03/31 05:42:30;;;;;;;834.30;759.70;;;5.80;99.90;;;;;;5030368;28;20462;-81
2022/03/31 05:44:57;;;;;;;812.27;741.00;;;5.80;99.90;;;;;;5035247;28;20456;-81
2022/03/31 05:47:24;;;;;;;798.33;726.60;;;5.80;99.90;;;;;;5018692;28;20856;-81
2022/03/31 05:49:50;;;;;;;795.97;723.97;;;5.70;99.90;;;;;;5029892;28;20480;-82
2022/03/31 05:52:17;;;;;;;805.13;733.40;;;5.80;99.90;;;;;;5022122;28;20451;-83
2022/03/31 05:54:44;;;;;;;791.63;723.77;;;5.80;99.90;;;;;;5016723;28;20456;-81
2022/03/31 05:57:13;;;;;;;788.57;719.63;;;5.70;99.90;;;;;;4999546;28;20465;-82
2022/03/31 05:59:39;;;;;;;803.20;733.13;;;5.80;99.90;;;;;;5013018;28;20985;-81
2022/03/31 06:02:06;;;;;;;812.83;740.57;;;5.80;99.90;;;;;;5019252;28;20461;-82
2022/03/31 06:04:33;;;;;;;814.27;744.20;;;5.80;99.90;;;;;;5033778;28;20747;-82
2022/03/31 06:06:59;;;;;;;807.47;739.50;;;5.80;99.90;;;;;;5039137;28;20447;-83
2022/03/31 06:09:26;;;;;;;793.67;728.80;;;5.90;99.90;;;;;;5027759;28;20835;-83
2022/03/31 06:11:53;;;;;;;780.63;716.83;;;5.90;99.90;;;;;;5021311;28;20461;-82
2022/03/31 06:14:21;;;;;;;791.73;725.43;;;6.00;99.90;;;;;;5033343;28;21000;-82
2022/03/31 06:16:49;;;;;;;790.87;729.00;;;6.00;99.90;;;;;;5041405;28;20456;-82
2022/03/31 06:19:16;;;;;;;787.67;727.80;;;6.00;99.90;;;;;;5029248;28;20472;-82
2022/03/31 06:21:43;;;;;;;779.23;721.20;;;6.00;99.90;;;;;;5022443;28;20816;-82
2022/03/31 06:24:10;;;;;;;771.70;718.93;;;6.10;99.90;;;;;;5029889;28;20478;-83
2022/03/31 06:26:36;;;;;;;775.63;720.77;;;6.10;99.90;;;;;;5035078;28;20457;-82
2022/03/31 06:29:06;;;;;;;753.40;704.73;;;6.50;99.90;;;;;;5033370;28;20484;-82
2022/03/31 06:31:34;;;;;;;743.13;698.10;;;6.10;99.90;;;;;;5030117;28;20457;-82
2022/03/31 06:34:01;;;;;;;754.43;707.43;;;6.10;99.90;;;;;;5027658;28;20456;-82
2022/03/31 06:36:30;;;;;;;727.97;686.87;;;6.10;99.90;;;;;;5031975;28;20449;-83
2022/03/31 06:38:57;;;;;;;762.93;715.17;;;6.10;99.90;;;;;;5037269;28;20563;-81
2022/03/31 06:41:24;;;;;;;769.30;718.13;;;6.20;99.90;;;;;;5039420;28;20448;-82
2022/03/31 06:43:51;;;;;;;743.73;700.50;;;6.10;99.90;;;;;;5038885;28;20544;-81
2022/03/31 06:46:18;;;;;;;751.80;708.73;;;6.20;99.90;;;;;;5039992;28;20456;-82
2022/03/31 06:48:48;;;;;;;767.93;722.07;;;6.30;99.90;;;;;;5037156;28;20488;-82
2022/03/31 06:51:16;;;;;;;770.00;723.67;;;6.40;99.90;;;;;;5037959;28;20457;-82
2022/03/31 06:53:44;;;;;;;754.07;710.67;;;6.60;99.90;;;;;;5038203;28;20555;-82
2022/03/31 06:56:13;;;;;;;721.37;686.27;;;6.50;99.90;;;;;;5022255;28;20491;-81
2022/03/31 06:58:40;;;;;;;707.63;674.50;;;6.70;99.90;;;;;;5015687;28;20473;-82
2022/03/31 07:01:07;;;;;;;629.23;603.10;;;6.80;99.90;;;;;;5015935;28;20457;-82
2022/03/31 07:03:34;;;;;;;638.30;612.40;;;6.90;99.90;;;;;;5014843;28;20461;-82
2022/03/31 07:06:02;;;;;;;555.00;533.23;;;6.90;99.90;;;;;;5014357;28;20460;-82
2022/03/31 07:08:30;;;;;;;534.03;514.33;;;7.00;99.90;;;;;;5012628;28;20489;-82
2022/03/31 07:10:57;;;;;;;465.17;447.97;;;7.10;99.90;;;;;;5014036;28;20457;-81
2022/03/31 07:13:23;;;;;;;310.33;298.70;;;7.20;99.90;;;;;;5013697;28;20468;-81
2022/03/31 07:15:50;;;;;;;355.33;341.10;;;7.20;99.90;;;;;;5013418;28;20980;-81
2022/03/31 07:18:17;;;;;;;353.67;340.13;;;7.50;99.90;;;;;;5012705;28;20666;-80
2022/03/31 07:20:44;;;;;;;494.40;474.33;;;7.50;99.90;;;;;;5013792;28;20838;-82
2022/03/31 07:23:12;;;;;;;321.83;308.23;;;7.60;99.90;;;;;;5013334;28;20496;-82
2022/03/31 07:25:40;;;;;;;150.43;142.93;;;7.40;99.90;;;;;;5013689;28;20453;-84
2022/03/31 07:28:07;;;;;;;86.47;80.87;;;7.40;99.90;;;;;;5012742;28;20481;-83
2022/03/31 07:30:34;;;;;;;184.73;175.80;;;7.10;99.90;;;;;;5013911;28;20457;-81
2022/03/31 07:33:03;;;;;;;254.97;243.73;;;7.10;99.90;;;;;;5013818;28;20465;-81
2022/03/31 07:35:31;;;;;;;439.30;420.60;;;7.00;99.90;;;;;;5014018;28;20457;-82
2022/03/31 07:38:03;;;;;;;639.83;607.43;;;7.00;99.90;;;;;;5013953;28;20461;-82
2022/03/31 07:40:31;;;;;;;635.50;602.83;;;7.10;99.90;;;;;;5014034;28;20463;-82
2022/03/31 07:42:58;;;;;;;614.27;583.10;;;7.30;99.90;;;;;;5014006;28;20454;-82
2022/03/31 07:45:26;;;;;;;615.73;584.43;;;7.30;99.90;;;;;;5014847;28;20485;-82
2022/03/31 07:47:52;;;;;;;443.47;424.93;;;7.50;99.90;;;;;;5014539;28;20453;-82
2022/03/31 07:50:21;;;;;;;366.73;351.77;;;7.50;99.90;;;;;;5013657;28;20468;-83
2022/03/31 07:52:49;;;;;;;270.63;259.63;;;7.40;99.90;;;;;;5015582;28;20489;-81
2022/03/31 07:55:19;;;;;;;282.30;270.80;;;7.50;99.90;;;;;;5014204;28;20954;-82
2022/03/31 07:57:48;;;;;;;209.40;199.53;;;7.50;99.90;;;;;;5014511;28;20530;-82
2022/03/31 08:00:16;;;;;;;212.10;202.23;;;7.40;99.90;;;;;;5014640;28;20457;-84
2022/03/31 08:02:44;;;;;;;501.80;479.67;;;7.70;99.90;;;;;;5016879;28;20503;-82
2022/03/31 08:05:12;;;;;;;194.17;185.33;;;7.90;99.90;;;;;;5016750;28;20515;-83
2022/03/31 08:07:39;;;;;;;78.83;73.03;;;7.80;99.20;;;;;;5014809;28;20514;-82
2022/03/31 08:10:08;;;;;;;89.13;82.57;;;7.80;99.30;;;;;;5014933;28;20492;-82
2022/03/31 08:12:36;;;;;;;123.17;115.50;;;7.80;97.70;;;;;;5017609;28;20454;-83
2022/03/31 08:15:05;;;;;;;321.97;308.63;;;8.00;98.10;;;;;;5017056;28;20989;-83
2022/03/31 08:17:31;;;;;;;476.20;454.73;;;8.40;99.90;;;;;;5015532;28;20453;-83
2022/03/31 08:19:58;;;;;;;394.57;378.70;;;8.40;99.90;;;;;;5014689;28;20477;-82
2022/03/31 08:22:26;;;;;;;144.53;136.60;;;8.50;99.90;;;;;;5016251;28;20834;-83
2022/03/31 08:24:54;;;;;;;41.63;37.03;;;8.60;97.50;;;;;;5016388;28;20507;-83
2022/03/31 08:27:21;;;;;;;39.00;28.13;;;8.40;95.30;;;;;;5017441;28;20457;-84
2022/03/31 08:29:48;;;;;;;39.23;28.63;;;8.20;95.90;;;;;;5021462;28;20545;-86
2022/03/31 08:32:16;;;;;;;49.23;43.60;;;7.90;95.70;;;;;;5019787;28;20841;-86
2022/03/31 08:34:43;;;;;;;118.93;111.90;;;7.90;97.70;;;;;;5019604;28;20457;-86
2022/03/31 08:37:09;;;;;;;72.63;66.67;;;7.90;98.80;;;;;;5017840;28;20464;-85
2022/03/31 08:39:36;;;;;;;65.80;60.53;;;7.90;97.20;;;;;;5018016;28;20477;-86
2022/03/31 08:42:06;;;;;;;96.23;89.73;;;7.80;97.40;;;;;;5020837;28;20793;-86
2022/03/31 08:44:33;;;;;;;74.30;68.70;;;7.70;98.00;;;;;;5019784;28;20457;-86
2022/03/31 08:47:00;;;;;;;171.73;163.13;;;7.60;97.50;;;;;;5016421;28;20497;-85
2022/03/31 08:49:29;;;;;;;57.53;52.63;;;7.70;99.00;;;;;;5013188;28;20492;-85
2022/03/31 08:51:56;;;;;;;98.60;91.73;;;7.50;96.60;;;;;;5014994;28;20461;-86
2022/03/31 08:54:23;;;;;;;78.53;73.30;;;7.50;98.10;;;;;;5015381;28;20464;-85
2022/03/31 08:56:50;;;;;;;52.00;47.17;;;7.40;97.00;;;;;;5017004;28;20457;-85
2022/03/31 08:59:17;;;;;;;59.03;54.00;;;7.20;98.10;;;;;;5014855;28;20473;-86
2022/03/31 09:01:44;;;;;;;167.70;159.33;;;7.20;98.50;;;;;;5016543;28;20460;-86
2022/03/31 09:04:19;;;;;;;301.47;289.13;;;7.20;99.90;;;;;;5019295;28;20449;-86
2022/03/31 09:06:49;;;;;;;247.17;236.53;;;7.20;99.90;;;;;;5016710;28;20453;-86
2022/03/31 09:09:16;;;;;;;149.07;141.57;;;7.00;99.00;;;;;;5016827;28;20485;-86
2022/03/31 09:11:46;;;;;;;368.10;353.27;;;7.20;99.90;;;;;;5017250;28;20461;-86
2022/03/31 09:14:14;;;;;;;381.37;366.37;;;7.10;99.90;;;;;;5018150;28;20457;-85
2022/03/31 09:16:41;;;;;;;430.90;413.00;;;7.20;99.90;;;;;;5017221;28;20458;-85
2022/03/31 09:19:10;;;;;;;430.67;412.63;;;7.30;99.90;;;;;;5017503;28;20527;-85
2022/03/31 09:21:49;;;;;;;487.40;466.30;;;7.20;99.90;;;;;;5021781;28;20998;-85
2022/03/31 09:24:18;;;;;;;491.50;469.83;;;7.30;99.90;;;;;;5019940;28;20457;-85
2022/03/31 09:26:46;;;;;;;440.10;422.13;;;7.30;99.90;;;;;;5020372;28;20483;-85
2022/03/31 09:29:14;;;;;;;198.17;189.37;;;7.40;99.90;;;;;;5019277;28;20488;-86
2022/03/31 09:31:41;;;;;;;301.07;289.13;;;7.40;99.90;;;;;;5019109;28;20463;-86
2022/03/31 09:34:09;;;;;;;371.10;356.40;;;7.40;99.90;;;;;;5018838;28;20804;-86
2022/03/31 09:36:37;;;;;;;319.47;306.17;;;7.50;99.90;;;;;;5018165;28;20457;-86
2022/03/31 09:39:07;;;;;;;306.83;294.03;;;7.50;99.90;;;;;;5017770;28;20534;-86
2022/03/31 09:41:37;;;;;;;300.60;288.27;;;7.60;99.90;;;;;;5019078;28;20461;-87
2022/03/31 09:44:06;;;;;;;277.33;266.10;;;7.60;98.90;;;;;;5018935;28;20945;-86
2022/03/31 09:46:35;;;;;;;307.40;294.85;;;7.60;99.90;;;;;;5019182;28;20462;-87
2022/03/31 09:49:12;;;;;;;203.63;194.60;;;7.60;98.80;;;;;;5018343;28;20232;-83
2022/03/31 09:51:39;;;;;;;81.73;76.30;;;7.60;99.20;;;;;;5018311;28;20456;-83
2022/03/31 09:54:06;;;;;;;76.00;70.37;;;7.60;98.10;;;;;;5016988;28;20464;-82
2022/03/31 09:56:38;;;;;;;149.43;142.00;;;7.50;97.10;;;;;;5016409;28;20838;-82
2022/03/31 09:59:07;;;;;;;285.50;273.93;;;7.40;98.00;;;;;;5015923;28;20504;-82
2022/03/31 10:01:34;;;;;;;210.73;201.23;;;7.50;99.90;;;;;;5016130;28;20464;-82
2022/03/31 10:04:02;;;;;;;196.23;187.53;;;7.60;99.90;;;;;;5014640;28;20491;-82
2022/03/31 10:06:29;;;;;;;147.87;140.43;;;7.50;99.50;;;;;;5016872;28;20449;-82
2022/03/31 10:08:57;;;;;;;256.73;246.60;;;7.60;97.10;;;;;;5015382;28;20559;-82
2022/03/31 10:11:27;;;;;;;245.10;235.07;;;7.60;99.60;;;;;;5015955;28;20456;-82
2022/03/31 10:14:06;;;;;;;196.83;187.83;;;7.60;98.20;;;;;;5015922;28;20460;-82
2022/03/31 10:16:39;;;;;;;330.47;317.10;;;7.60;98.70;;;;;;5015729;28;20457;-82
2022/03/31 10:19:06;;;;;;;230.27;220.37;;;7.80;98.50;;;;;;5014987;28;20477;-82
2022/03/31 10:21:33;;;;;;;338.10;323.03;;;7.90;98.30;;;;;;5015697;28;20465;-82
2022/03/31 10:26:44;;;;;;;347.20;333.37;;;8.20;99.70;;;;;;5015621;28;20460;-82
2022/03/31 10:29:14;;;;;;;128.47;121.33;;;8.10;99.30;;;;;;5015845;28;20481;-82
2022/03/31 10:31:43;;;;;;;113.97;107.57;;;8.10;96.50;;;;;;5019926;28;20468;-82
2022/03/31 10:34:11;;;;;;;75.90;70.67;;;8.10;95.40;;;;;;5015666;28;20453;-82
2022/03/31 10:36:41;;;;;;;81.90;76.60;;;8.10;94.70;;;;;;5014973;28;20942;-82
2022/03/31 10:39:15;;;;;;;51.00;46.40;;;8.20;95.90;;;;;;5061604;23;20500;-79
2022/03/31 10:41:43;;;;;;;63.50;58.07;;;8.30;94.10;;;;;;5034891;28;20842;-79
2022/03/31 10:44:19;;;;;;;355.63;339.23;;;8.40;94.80;;;;;;5035079;28;20448;-82
2022/03/31 10:46:48;;;;;;;34.27;29.87;;;8.70;96.90;;;;;;5034796;28;20456;-79
2022/03/31 10:49:20;;;;;;;36.37;32.17;;;8.60;90.90;;;;;;5034411;28;20484;-80
2022/03/31 10:51:48;;;;;;;96.23;89.03;;;9.10;92.90;;;;;;5035376;28;20441;-79
2022/03/31 10:54:25;;;;;;;126.00;119.30;;;9.20;95.80;;;;;;5034618;28;21092;-79
2022/03/31 10:57:06;;;;;;;42.10;37.70;;;9.20;94.50;;;;;;5032068;28;20456;-79
2022/03/31 10:59:35;;;;;;;37.80;33.00;;;9.10;90.80;;;;;;5032284;28;20476;-79
2022/03/31 11:02:14;;;;;;;53.93;48.77;;;8.70;92.30;;;;;;5033428;28;20486;-79
2022/03/31 11:04:50;;;;;;;38.43;34.03;;;8.80;93.10;;;;;;5033190;28;20961;-78
2022/03/31 11:07:18;;;;;;;49.73;45.10;;;8.60;92.20;;;;;;5033068;28;20463;-79
2022/03/31 11:09:46;;;;;;;64.73;59.03;;;8.40;92.40;;;;;;5032561;28;21095;-79
2022/03/31 11:12:26;;;;;;;148.27;134.00;;;8.40;93.30;;;;;;5033215;28;20478;-78
2022/03/31 11:14:59;;;;;;;134.10;124.17;;;8.40;93.20;;;;;;5033179;28;20491;-78
2022/03/31 11:17:26;;;;;;;105.73;99.43;;;8.40;94.90;;;;;;5033155;28;20518;-79
2022/03/31 11:19:55;;;;;;;165.73;157.77;;;8.30;94.70;;;;;;5032730;28;20515;-79
2022/03/31 11:22:23;;;;;;;207.10;197.63;;;8.20;95.80;;;;;;5033406;28;20500;-79
2022/03/31 11:24:51;;;;;;;199.30;190.17;;;8.30;95.30;;;;;;5033705;28;20487;-79
2022/03/31 11:27:30;;;;;;;43.23;38.80;;;8.10;96.20;;;;;;5033062;28;20464;-79
2022/03/31 11:29:59;;;;;;;42.40;38.60;;;8.00;91.80;;;;;;5032074;28;20484;-81
2022/03/31 11:32:33;;;;;;;41.10;37.27;;;7.90;94.60;;;;;;5032973;28;20459;-79
2022/03/31 11:34:59;;;;;;;32.07;25.67;;;8.10;94.00;;;;;;5032505;28;20452;-80
2022/03/31 11:37:26;;;;;;;36.77;27.40;;;7.90;92.20;;;;;;5032874;28;20538;-78
2022/03/31 11:39:53;;;;;;;48.20;43.83;;;7.80;92.10;;;;;;5031803;28;20487;-78
2022/03/31 11:42:20;;;;;;;37.73;32.13;;;7.80;91.90;;;;;;5031547;28;20452;-78
2022/03/31 11:44:47;;;;;;;27.37;23.07;;;7.90;91.60;;;;;;5033017;28;20893;-79
2022/03/31 11:47:20;;;;;;;94.23;88.43;;;7.90;91.70;;;;;;5032369;28;20455;-78
2022/03/31 11:49:58;;;;;;;50.57;46.27;;;7.90;95.80;;;;;;5032685;28;20480;-79
2022/03/31 11:52:35;;;;;;;197.40;188.77;;;8.10;94.00;;;;;;5033398;28;20486;-79
2022/03/31 11:55:03;;;;;;;27.80;24.20;;;8.20;95.10;;;;;;5033896;28;20544;-78
2022/03/31 11:57:31;;;;;;;28.83;22.90;;;8.00;92.90;;;;;;5033783;28;20456;-78
2022/03/31 12:00:09;;;;;;;72.93;67.87;;;8.10;91.70;;;;;;5032007;28;20476;-78
2022/03/31 12:02:37;;;;;;;98.70;93.27;;;8.20;95.30;;;;;;5034336;28;20440;-79
2022/03/31 12:05:05;;;;;;;31.93;26.07;;;8.30;96.30;;;;;;5033389;28;20460;-79
2022/03/31 12:07:32;;;;;;;39.47;35.97;;;8.10;91.30;;;;;;5033420;28;20456;-79
2022/03/31 12:09:59;;;;;;;30.97;22.30;;;8.10;92.80;;;;;;5032676;28;20503;-78
2022/03/31 12:12:25;;;;;;;59.10;52.67;;;7.80;91.50;;;;;;5033135;28;20957;-81
2022/03/31 12:14:55;;;;;;;51.13;46.33;;;8.00;97.30;;;;;;5033073;28;20467;-79
2022/03/31 12:17:21;;;;;;;132.53;125.77;;;7.90;93.10;;;;;;5032993;28;20543;-79
2022/03/31 12:19:50;;;;;;;232.87;223.43;;;8.00;97.30;;;;;;5032257;28;20472;-79
2022/03/31 12:22:17;;;;;;;232.27;222.77;;;7.80;95.00;;;;;;5032828;28;20464;-79
2022/03/31 12:24:48;;;;;;;355.37;341.13;;;7.80;99.00;;;;;;5032549;28;20459;-80
2022/03/31 12:27:17;;;;;;;322.30;309.03;;;7.60;99.60;;;;;;5033224;28;20506;-80
2022/03/31 12:29:45;;;;;;;381.00;364.87;;;7.10;99.90;;;;;;5032109;28;21256;-78